Time;durP1;ratioP1;P1;durP2;ratioP2;P2;SDS_P1;SDS_P2;PMS_P1;PMS_P2;Temp;Humidity;BMP_temperature;BMP_pressure;BME280_temperature;BME280_humidity;BME280_pressure;Samples;Min_cycle;Max_cycle;Signal;HPM_P1;HPM_P2
2022/04/08 00:02:05;;;;;;;6.47;1.45;;;;;;;-149.78;100.00;50440.16;5071765;28;20036;-69
2022/04/08 00:04:32;;;;;;;9.10;1.92;;;;;;;-149.78;100.00;50463.63;5072946;28;20067;-69
2022/04/08 00:06:59;;;;;;;8.75;1.80;;;;;;;-149.78;100.00;50459.72;5072920;28;20048;-69
2022/04/08 00:09:25;;;;;;;12.88;1.95;;;;;;;-149.78;100.00;50440.16;5071688;28;20036;-69
2022/04/08 00:11:51;;;;;;;11.57;1.88;;;;;;;-149.78;100.00;50475.34;5038406;28;20170;-69
2022/04/08 00:14:20;;;;;;;7.75;1.58;;;;;;;-149.78;100.00;50469.50;5071723;28;20434;-69
2022/04/08 00:16:46;;;;;;;7.32;1.70;;;;;;;-149.78;100.00;50471.44;5072779;28;20047;-69
2022/04/08 00:19:11;;;;;;;11.48;1.63;;;;;;;-149.78;100.00;50467.53;5072570;28;20036;-69
2022/04/08 00:21:37;;;;;;;9.07;1.65;;;;;;;-149.78;100.00;50451.88;5071712;28;20111;-69
2022/04/08 00:24:03;;;;;;;8.48;1.70;;;;;;;-149.78;100.00;50440.16;5072689;28;20092;-69
2022/04/08 00:26:29;;;;;;;7.05;1.33;;;;;;;-149.78;100.00;50451.88;5072802;28;20158;-69
2022/04/08 00:28:55;;;;;;;6.45;1.63;;;;;;;-149.78;100.00;50424.50;5072609;28;20029;-69
2022/04/08 00:31:21;;;;;;;6.10;1.60;;;;;;;-149.78;100.00;50408.84;5072546;28;20032;-69
2022/04/08 00:33:46;;;;;;;7.07;1.50;;;;;;;-149.78;100.00;50428.41;5070471;28;20035;-69
2022/04/08 00:36:12;;;;;;;6.63;1.70;;;;;;;-149.78;100.00;50432.31;5071243;28;20115;-69
2022/04/08 00:38:38;;;;;;;5.30;1.35;;;;;;;-149.78;100.00;50428.41;5072396;28;20475;-69
2022/04/08 00:41:04;;;;;;;8.45;1.67;;;;;;;-149.78;100.00;50489.03;5054510;28;20032;-69
2022/04/08 00:43:38;;;;;;;4.93;1.05;;;;;;;-149.78;100.00;50467.53;5071348;28;20067;-69
2022/04/08 00:46:05;;;;;;;7.63;1.45;;;;;;;-149.78;100.00;50471.44;5071180;28;20075;-69
2022/04/08 00:48:32;;;;;;;7.35;1.60;;;;;;;-149.78;100.00;50467.53;5072252;28;20058;-69
2022/04/08 00:50:59;;;;;;;10.63;1.40;;;;;;;-149.78;100.00;50469.50;5072032;28;20032;-69
2022/04/08 00:53:25;;;;;;;6.10;1.48;;;;;;;-149.78;100.00;50432.31;5070992;28;20468;-69
2022/04/08 00:55:51;;;;;;;4.15;1.20;;;;;;;-149.78;100.00;50436.25;5070974;28;20097;-69
2022/04/08 00:58:17;;;;;;;7.78;1.75;;;;;;;-149.78;100.00;50420.59;5070904;28;20488;-69
2022/04/08 01:00:42;;;;;;;6.20;1.30;;;;;;;-149.78;100.00;50475.34;5072012;28;20392;-69
2022/04/08 01:03:08;;;;;;;6.47;1.60;;;;;;;-149.78;100.00;50471.44;5072135;28;20037;-69
2022/04/08 01:05:34;;;;;;;4.65;1.67;;;;;;;-149.78;100.00;50438.19;5072206;28;20701;-69
2022/04/08 01:08:01;;;;;;;4.03;1.38;;;;;;;-149.78;100.00;50491.00;5070852;28;20043;-69
2022/04/08 01:10:27;;;;;;;7.63;1.30;;;;;;;-149.78;100.00;50428.41;5072251;28;20024;-68
2022/04/08 01:12:53;;;;;;;7.78;1.50;;;;;;;-149.78;100.00;50455.81;5072402;28;20101;-68
2022/04/08 01:15:20;;;;;;;11.50;1.30;;;;;;;-149.78;100.00;50440.16;5072279;28;20492;-68
2022/04/08 01:17:48;;;;;;;6.68;1.40;;;;;;;-149.78;100.00;50479.28;5072241;28;20664;-69
2022/04/08 01:20:14;;;;;;;3.20;1.35;;;;;;;-149.78;100.00;50471.44;5072216;28;20044;-69
2022/04/08 01:22:40;;;;;;;5.82;1.85;;;;;;;-149.78;100.00;50461.66;5071452;28;20028;-69
2022/04/08 01:25:07;;;;;;;8.50;1.40;;;;;;;-149.78;100.00;50424.50;5070832;28;20029;-69
2022/04/08 01:27:35;;;;;;;5.45;1.40;;;;;;;-149.78;100.00;50406.91;5070896;28;20044;-69
2022/04/08 01:30:04;;;;;;;6.57;1.50;;;;;;;-149.78;100.00;50447.97;5080748;28;20043;-68
2022/04/08 01:32:29;;;;;;;6.57;1.65;;;;;;;-149.78;100.00;50408.84;5092171;28;20048;-68
2022/04/08 01:34:55;;;;;;;7.85;1.60;;;;;;;-149.78;100.00;50416.69;5074052;28;20063;-69
2022/04/08 01:37:21;;;;;;;9.43;1.33;;;;;;;-149.78;100.00;50451.88;5092236;28;20032;-69
2022/04/08 01:39:46;;;;;;;8.65;1.65;;;;;;;-149.78;100.00;50455.81;5090832;28;20420;-69
2022/04/08 01:42:12;;;;;;;9.63;1.45;;;;;;;-149.78;100.00;50491.00;5092146;28;20036;-69
2022/04/08 01:44:38;;;;;;;4.28;1.40;;;;;;;-149.78;100.00;50447.97;5092767;28;20039;-68
2022/04/08 01:47:05;;;;;;;8.82;1.50;;;;;;;-149.78;100.00;50451.88;5096020;28;20040;-68
2022/04/08 01:49:30;;;;;;;5.22;1.48;;;;;;;-149.78;100.00;50463.63;5094858;28;20032;-68
2022/04/08 01:51:56;;;;;;;10.20;1.77;;;;;;;-149.78;100.00;50475.34;5095867;28;20045;-68
2022/04/08 01:54:22;;;;;;;6.30;1.60;;;;;;;-149.78;100.00;50483.19;5094497;28;20043;-68
2022/04/08 01:56:48;;;;;;;8.07;2.30;;;;;;;-149.78;100.00;50420.59;5095796;28;20479;-68
2022/04/08 01:59:14;;;;;;;5.93;1.95;;;;;;;-149.78;100.00;50475.34;5095832;28;20050;-68
2022/04/08 02:01:40;;;;;;;8.10;1.90;;;;;;;-149.78;100.00;50491.00;5095646;28;20123;-69
2022/04/08 02:04:05;;;;;;;13.63;1.50;;;;;;;-149.78;100.00;50449.94;5083464;28;20111;-68
2022/04/08 02:06:34;;;;;;;9.45;2.00;;;;;;;-149.78;100.00;50447.97;5075435;28;20106;-69
2022/04/08 02:09:00;;;;;;;5.82;1.80;;;;;;;-149.78;100.00;50471.44;5075282;28;20067;-68
2022/04/08 02:11:26;;;;;;;7.68;1.70;;;;;;;-149.78;100.00;50455.81;5074147;28;20082;-69
2022/04/08 02:13:52;;;;;;;4.72;1.38;;;;;;;-149.78;100.00;50467.53;5075219;28;20474;-69
2022/04/08 02:16:17;;;;;;;8.32;1.55;;;;;;;-149.78;100.00;50483.19;5073988;28;20533;-68
2022/04/08 02:18:43;;;;;;;6.45;1.65;;;;;;;-149.78;100.00;50463.63;5057303;28;20043;-69
2022/04/08 02:21:09;;;;;;;10.95;1.90;;;;;;;-149.78;100.00;50498.81;5057121;28;20081;-69
2022/04/08 02:23:36;;;;;;;4.85;1.33;;;;;;;-149.78;100.00;50487.09;5075158;28;20055;-68
2022/04/08 02:26:02;;;;;;;12.27;1.65;;;;;;;-149.78;100.00;50479.28;5073897;28;20037;-69
2022/04/08 02:28:28;;;;;;;5.72;1.70;;;;;;;-149.78;100.00;50432.31;5075144;28;20641;-69
2022/04/08 02:30:55;;;;;;;8.75;2.05;;;;;;;-149.78;100.00;50471.44;5073697;28;20035;-68
2022/04/08 02:33:21;;;;;;;6.72;1.70;;;;;;;-149.78;100.00;50449.94;5075050;28;20032;-69
2022/04/08 02:35:47;;;;;;;6.13;1.45;;;;;;;-149.78;100.00;50471.44;5074870;28;20046;-69
2022/04/08 02:38:13;;;;;;;7.28;1.40;;;;;;;-149.78;100.00;50479.28;5073385;28;20492;-68
2022/04/08 02:40:39;;;;;;;9.10;1.55;;;;;;;-149.78;100.00;50451.88;5074501;28;20431;-68
2022/04/08 02:43:05;;;;;;;7.05;1.58;;;;;;;-149.78;100.00;50436.25;5073467;28;20041;-68
2022/04/08 02:45:31;;;;;;;9.68;1.63;;;;;;;-149.78;100.00;50459.72;5074448;28;20421;-69
2022/04/08 02:47:57;;;;;;;6.28;1.60;;;;;;;-149.78;100.00;50491.00;5073402;28;20038;-68
2022/04/08 02:50:23;;;;;;;7.82;2.03;;;;;;;-149.78;100.00;50465.56;5073321;28;20050;-68
2022/04/08 02:52:48;;;;;;;7.47;1.73;;;;;;;-149.78;100.00;50432.31;5073166;28;20025;-68
2022/04/08 02:55:14;;;;;;;10.27;1.77;;;;;;;-149.78;100.00;50455.81;5072349;28;20037;-69
2022/04/08 02:57:46;;;;;;;7.72;1.70;;;;;;;-149.78;100.00;50522.28;5073968;28;20044;-69
2022/04/08 03:00:16;;;;;;;8.38;1.88;;;;;;;-149.78;100.00;50514.47;5074252;28;20045;-68
2022/04/08 03:02:43;;;;;;;6.63;1.52;;;;;;;-149.78;100.00;50485.13;5073026;28;20476;-68
2022/04/08 03:05:10;;;;;;;5.40;1.88;;;;;;;-149.78;100.00;50487.09;5074108;28;20032;-68
2022/04/08 03:07:35;;;;;;;8.13;1.92;;;;;;;-149.78;100.00;50444.06;5074157;28;20054;-69
2022/04/08 03:10:04;;;;;;;6.43;1.75;;;;;;;-149.78;100.00;50447.97;5074031;28;20039;-69
2022/04/08 03:12:31;;;;;;;8.38;1.88;;;;;;;-149.78;100.00;50479.28;5074041;28;20029;-68
2022/04/08 03:14:57;;;;;;;5.30;1.77;;;;;;;-149.78;100.00;50498.81;5072701;28;20420;-68
2022/04/08 03:17:23;;;;;;;5.95;1.85;;;;;;;-149.78;100.00;50447.97;5072998;28;20392;-69
2022/04/08 03:19:50;;;;;;;10.05;2.10;;;;;;;-149.78;100.00;50491.00;5073794;28;20488;-68
2022/04/08 03:22:19;;;;;;;6.72;2.05;;;;;;;-149.78;100.00;50502.75;5072688;28;20086;-68
2022/04/08 03:24:50;;;;;;;8.10;1.73;;;;;;;-149.78;100.00;50459.72;5072669;28;20090;-68
2022/04/08 03:27:17;;;;;;;5.75;1.63;;;;;;;-149.78;100.00;50522.28;5073782;28;20086;-68
2022/04/08 03:29:44;;;;;;;7.57;2.25;;;;;;;-149.78;100.00;50506.66;5073621;28;20033;-69
2022/04/08 03:32:10;;;;;;;7.28;2.28;;;;;;;-149.78;100.00;50479.28;5072006;28;20036;-69
2022/04/08 03:34:36;;;;;;;18.30;2.83;;;;;;;-149.78;100.00;50510.56;5076760;28;20111;-68
2022/04/08 03:37:02;;;;;;;6.28;2.00;;;;;;;-149.78;100.00;50506.66;5084020;28;20606;-69
2022/04/08 03:39:27;;;;;;;6.03;2.10;;;;;;;-149.78;100.00;50467.53;5092408;28;20487;-68
2022/04/08 03:41:53;;;;;;;4.72;2.25;;;;;;;-149.78;100.00;50440.16;5086058;28;20472;-68
2022/04/08 03:44:19;;;;;;;3.60;2.05;;;;;;;-149.78;100.00;50492.97;5073581;28;20029;-69
2022/04/08 03:46:46;;;;;;;6.95;2.13;;;;;;;-149.78;100.00;50432.31;5093661;28;20040;-69
2022/04/08 03:49:16;;;;;;;11.48;2.17;;;;;;;-149.78;100.00;50436.25;5093701;28;20133;-69
2022/04/08 03:51:46;;;;;;;5.15;1.92;;;;;;;-149.78;100.00;50479.28;5075884;28;20036;-68
2022/04/08 03:54:13;;;;;;;5.43;2.03;;;;;;;-149.78;100.00;50483.19;5092200;28;20162;-69
2022/04/08 03:56:42;;;;;;;2.55;1.48;;;;;;;-149.78;100.00;50455.81;5093430;28;20126;-69
2022/04/08 03:59:08;;;;;;;5.55;1.70;;;;;;;-149.78;100.00;50494.91;5092420;28;20086;-68
2022/04/08 04:01:34;;;;;;;9.48;2.33;;;;;;;-149.78;100.00;50444.06;5093260;28;20040;-69
2022/04/08 04:04:01;;;;;;;7.68;1.73;;;;;;;-149.78;100.00;50487.09;5076936;28;20036;-69
2022/04/08 04:06:26;;;;;;;10.63;1.77;;;;;;;-149.78;100.00;50471.44;5073046;28;20037;-69
2022/04/08 04:08:52;;;;;;;3.15;1.50;;;;;;;-149.78;100.00;50475.34;5072745;28;20376;-69
2022/04/08 04:11:17;;;;;;;6.68;1.92;;;;;;;-149.78;100.00;50498.81;5072990;28;20123;-69
2022/04/08 04:13:44;;;;;;;4.95;1.70;;;;;;;-149.78;100.00;50498.81;5071500;28;20044;-69
2022/04/08 04:16:10;;;;;;;12.50;2.42;;;;;;;-149.78;100.00;50489.03;5072932;28;20036;-68
2022/04/08 04:18:36;;;;;;;6.65;1.85;;;;;;;-149.78;100.00;50432.31;5072904;28;20082;-68
2022/04/08 04:21:02;;;;;;;4.95;2.03;;;;;;;-149.78;100.00;50479.28;5072778;28;20037;-69
2022/04/08 04:23:28;;;;;;;10.73;2.17;;;;;;;-149.78;100.00;50432.31;5072882;28;20123;-69
2022/04/08 04:25:54;;;;;;;7.18;2.00;;;;;;;-149.78;100.00;50471.44;5071549;28;20032;-69
2022/04/08 04:28:20;;;;;;;9.85;1.80;;;;;;;-149.78;100.00;50494.91;5072804;28;20032;-69
2022/04/08 04:30:46;;;;;;;8.88;2.10;;;;;;;-149.78;100.00;50451.88;5072602;28;20472;-69
2022/04/08 04:33:14;;;;;;;7.47;1.98;;;;;;;-149.78;100.00;50453.84;5072632;28;20032;-68
2022/04/08 04:35:40;;;;;;;8.15;2.28;;;;;;;-149.78;100.00;50440.16;5072732;28;20039;-69
2022/04/08 04:38:05;;;;;;;4.55;1.92;;;;;;;-149.78;100.00;50475.34;5080580;28;20051;-68
2022/04/08 04:40:31;;;;;;;5.47;1.73;;;;;;;-149.78;100.00;50498.81;5092756;28;20039;-69
2022/04/08 04:42:57;;;;;;;4.72;2.15;;;;;;;-149.78;100.00;50475.34;5092474;28;20036;-68
2022/04/08 04:45:24;;;;;;;3.50;1.75;;;;;;;-149.78;100.00;50459.72;5092840;28;20062;-69
2022/04/08 04:47:50;;;;;;;7.03;2.22;;;;;;;-149.78;100.00;50469.50;5092722;28;20392;-69
2022/04/08 04:50:16;;;;;;;6.63;2.25;;;;;;;-149.78;100.00;50477.31;5092333;28;20031;-69
2022/04/08 04:52:41;;;;;;;11.93;2.47;;;;;;;-149.78;100.00;50483.19;5092706;28;20558;-68
2022/04/08 04:55:07;;;;;;;4.35;2.42;;;;;;;-149.78;100.00;50471.44;5090584;28;20478;-68
2022/04/08 04:57:34;;;;;;;6.57;2.20;;;;;;;-149.78;100.00;50485.13;5071287;28;20119;-68
2022/04/08 05:00:00;;;;;;;11.45;2.42;;;;;;;-149.78;100.00;50440.16;5080027;28;20047;-69
2022/04/08 05:02:25;;;;;;;9.35;3.40;;;;;;;-149.78;100.00;50469.50;5076002;28;20032;-68
2022/04/08 05:04:51;;;;;;;8.00;2.38;;;;;;;-149.78;100.00;50516.44;5071914;28;20123;-69
2022/04/08 05:07:16;;;;;;;8.80;2.42;;;;;;;-149.78;100.00;50491.00;5072168;28;20037;-68
2022/04/08 05:09:43;;;;;;;4.80;2.30;;;;;;;-149.78;100.00;50469.50;5085512;28;20609;-68
2022/04/08 05:12:09;;;;;;;7.72;2.80;;;;;;;-149.78;100.00;50498.81;5088677;28;20073;-68
2022/04/08 05:14:35;;;;;;;6.32;2.47;;;;;;;-149.78;100.00;50471.44;5078591;28;20031;-68
2022/04/08 05:17:01;;;;;;;6.07;2.38;;;;;;;-149.78;100.00;50498.81;5072191;28;20473;-68
2022/04/08 05:19:26;;;;;;;4.57;2.42;;;;;;;-149.78;100.00;50465.56;5085424;28;20042;-68
2022/04/08 05:21:53;;;;;;;4.55;2.47;;;;;;;-149.78;100.00;50451.88;5091036;28;20036;-68
2022/04/08 05:24:19;;;;;;;5.65;2.35;;;;;;;-149.78;100.00;50481.22;5080359;28;20078;-68
2022/04/08 05:26:45;;;;;;;6.10;2.40;;;;;;;-149.78;100.00;50508.59;5058203;28;20032;-68
2022/04/08 05:29:11;;;;;;;7.05;2.70;;;;;;;-149.78;100.00;50510.56;5058333;28;20048;-68
2022/04/08 05:31:38;;;;;;;8.50;3.10;;;;;;;-149.78;100.00;50498.81;5074678;28;20033;-68
2022/04/08 05:34:04;;;;;;;9.80;3.65;;;;;;;-149.78;100.00;50494.91;5074782;28;20086;-68
2022/04/08 05:36:29;;;;;;;11.90;3.40;;;;;;;-149.78;100.00;50516.44;5074855;28;20059;-68
2022/04/08 05:38:56;;;;;;;11.50;3.40;;;;;;;-149.78;100.00;50492.97;5075582;28;20056;-68
2022/04/08 05:41:21;;;;;;;7.97;3.63;;;;;;;-149.78;100.00;50479.28;5085849;28;20039;-68
2022/04/08 05:43:47;;;;;;;12.18;4.10;;;;;;;-149.78;100.00;50518.38;5096135;28;20513;-68
2022/04/08 05:46:14;;;;;;;11.63;4.28;;;;;;;-149.78;100.00;50494.91;5093815;28;20036;-68
2022/04/08 05:48:40;;;;;;;11.77;4.13;;;;;;;-149.78;100.00;50504.69;5093461;28;20039;-68
2022/04/08 05:51:05;;;;;;;11.85;4.18;;;;;;;-149.78;100.00;50455.81;5083237;28;20391;-68
2022/04/08 05:53:31;;;;;;;9.73;3.90;;;;;;;-149.78;100.00;50496.88;5092417;28;20032;-68
2022/04/08 05:55:58;;;;;;;11.85;4.43;;;;;;;-149.78;100.00;50475.34;5084772;28;20036;-68
2022/04/08 05:58:24;;;;;;;11.75;4.47;;;;;;;-149.78;100.00;50479.28;5086967;28;20031;-68
2022/04/08 06:00:50;;;;;;;8.35;3.75;;;;;;;-149.78;100.00;50498.81;5083871;28;20407;-67
2022/04/08 06:03:16;;;;;;;6.15;3.80;;;;;;;-149.78;100.00;50485.13;5075267;28;20032;-67
2022/04/08 06:05:43;;;;;;;13.95;4.72;;;;;;;-149.78;100.00;50494.91;5081067;28;20102;-67
2022/04/08 06:08:08;;;;;;;11.85;4.60;;;;;;;-149.78;100.00;50502.75;5081080;28;20476;-67
2022/04/08 06:10:34;;;;;;;14.07;4.18;;;;;;;-149.78;100.00;50494.91;5075926;28;20032;-67
2022/04/08 06:13:01;;;;;;;13.68;4.18;;;;;;;-149.78;100.00;50518.38;5081666;28;20036;-68
2022/04/08 06:15:27;;;;;;;12.57;4.15;;;;;;;-149.78;100.00;50502.75;5095600;28;20035;-68
2022/04/08 06:17:55;;;;;;;10.65;4.18;;;;;;;-149.78;100.00;50516.44;5085189;28;20162;-68
2022/04/08 06:20:22;;;;;;;12.52;3.90;;;;;;;-149.78;100.00;50467.53;5076228;28;20056;-67
2022/04/08 06:22:50;;;;;;;11.80;5.28;;;;;;;-149.78;100.00;50498.81;5074326;28;20391;-67
2022/04/08 06:25:18;;;;;;;12.90;3.95;;;;;;;-149.78;100.00;50485.13;5078633;28;20039;-67
2022/04/08 06:27:47;;;;;;;10.05;3.90;;;;;;;-149.78;100.00;50487.09;5075903;28;20040;-67
2022/04/08 06:30:14;;;;;;;8.07;3.75;;;;;;;-149.78;100.00;50494.91;5077485;28;20029;-67
2022/04/08 06:32:43;;;;;;;11.35;4.00;;;;;;;-149.78;100.00;50479.28;5081315;28;20120;-67
2022/04/08 06:35:10;;;;;;;10.32;3.97;;;;;;;-149.78;100.00;50479.28;5074360;28;20107;-67
2022/04/08 06:37:36;;;;;;;7.93;4.15;;;;;;;-149.78;100.00;50473.41;5074503;28;20507;-67
2022/04/08 06:40:04;;;;;;;14.75;3.92;;;;;;;-149.78;100.00;50467.53;5074971;28;20067;-68
2022/04/08 06:42:30;;;;;;;10.35;3.67;;;;;;;-149.78;100.00;50479.28;5083452;28;20452;-68
2022/04/08 06:44:55;;;;;;;12.05;3.75;;;;;;;-149.78;100.00;50491.00;5090066;28;20063;-68
2022/04/08 06:47:21;;;;;;;7.90;3.92;;;;;;;-149.78;100.00;50477.31;5084735;28;20034;-69
2022/04/08 06:49:47;;;;;;;6.75;3.05;;;;;;;-149.78;100.00;50467.53;5083809;28;20491;-68
2022/04/08 06:52:13;;;;;;;7.50;2.90;;;;;;;-149.78;100.00;50481.22;5086249;28;20383;-68
2022/04/08 06:54:39;;;;;;;10.27;3.13;;;;;;;-149.78;100.00;50475.34;5079103;28;20028;-68
2022/04/08 06:57:05;;;;;;;4.85;2.60;;;;;;;-149.78;100.00;50432.31;5093964;28;20040;-68
2022/04/08 06:59:31;;;;;;;7.38;2.58;;;;;;;-149.78;100.00;50440.16;5092304;28;20575;-68
2022/04/08 07:01:56;;;;;;;7.90;2.58;;;;;;;-149.78;100.00;50436.25;5093751;28;20089;-69
2022/04/08 07:04:22;;;;;;;5.57;2.35;;;;;;;-149.78;100.00;50385.38;5073454;28;20487;-67
2022/04/08 07:06:48;;;;;;;4.78;1.83;;;;;;;-149.78;100.00;50354.09;5073500;28;20119;-67
2022/04/08 07:09:14;;;;;;;4.40;1.92;;;;;;;-149.78;100.00;50334.53;5079022;28;20066;-68
2022/04/08 07:11:39;;;;;;;3.47;1.80;;;;;;;-149.78;100.00;50268.03;5073417;28;20032;-68
2022/04/08 07:14:05;;;;;;;3.10;1.70;;;;;;;-149.78;100.00;50275.88;5092718;28;20127;-67
2022/04/08 07:16:31;;;;;;;3.40;1.63;;;;;;;-149.78;100.00;50258.28;5082803;28;20048;-67
2022/04/08 07:18:56;;;;;;;2.55;1.50;;;;;;;-149.78;68.49;50205.47;5077769;28;20495;-68
2022/04/08 07:21:22;;;;;;;2.10;1.45;;;;;;;-149.78;58.69;50209.38;5073259;28;20039;-67
2022/04/08 07:23:49;;;;;;;4.40;1.70;;;;;;;-149.78;51.29;50189.81;5085803;28;20040;-67
2022/04/08 07:26:15;;;;;;;5.13;1.63;;;;;;;-149.78;50.09;50217.19;5086026;28;20477;-68
2022/04/08 07:28:41;;;;;;;4.03;1.90;;;;;;;-149.78;51.48;50213.28;5082973;28;20036;-68
2022/04/08 07:31:07;;;;;;;3.75;1.63;;;;;;;-149.78;52.26;50209.38;5076635;28;20039;-68
2022/04/08 07:33:33;;;;;;;4.60;1.85;;;;;;;-149.78;51.80;50211.34;5076655;28;20023;-67
2022/04/08 07:35:59;;;;;;;7.63;2.17;;;;;;;-149.78;48.58;50166.34;5088037;28;20371;-67
2022/04/08 07:38:25;;;;;;;2.67;1.70;;;;;;;-149.78;48.37;50219.16;5083499;28;20133;-67
2022/04/08 07:40:51;;;;;;;1.52;1.20;;;;;;;-149.78;45.12;50150.72;5081866;28;20036;-67
2022/04/08 07:43:17;;;;;;;5.20;1.17;;;;;;;-149.78;43.85;50103.78;5086322;28;20040;-67
2022/04/08 07:45:43;;;;;;;2.58;0.90;;;;;;;-149.78;45.26;50162.44;5081347;28;20039;-68
2022/04/08 07:48:09;;;;;;;1.50;1.00;;;;;;;-149.78;43.50;50170.25;5084640;28;20036;-67
2022/04/08 07:50:37;;;;;;;3.17;1.10;;;;;;;-149.78;42.62;50182.00;5081018;28;20063;-67
2022/04/08 07:53:03;;;;;;;3.08;1.38;;;;;;;-149.78;43.97;50160.50;5078428;28;20102;-67
2022/04/08 07:55:29;;;;;;;4.15;1.33;;;;;;;-149.78;44.11;50211.34;5079365;28;20080;-67
2022/04/08 07:57:55;;;;;;;4.10;1.20;;;;;;;-149.78;45.85;50182.00;5084269;28;20705;-67
2022/04/08 08:00:25;;;;;;;4.40;1.67;;;;;;;-149.78;43.54;50182.00;5066332;28;20427;-68
2022/04/08 08:02:51;;;;;;;3.58;1.83;;;;;;;-149.78;41.17;50176.13;5090484;28;20551;-67
2022/04/08 08:05:20;;;;;;;3.60;1.70;;;;;;;-149.78;43.00;50150.72;5078706;28;20050;-68
2022/04/08 08:07:52;;;;;;;2.78;1.10;;;;;;;-149.78;39.45;50178.09;5082965;28;20371;-68
2022/04/08 08:10:21;;;;;;;3.15;1.33;;;;;;;-149.78;39.29;50107.69;5085691;28;20027;-67
2022/04/08 08:12:47;;;;;;;1.77;1.10;;;;;;;-149.78;41.75;50176.13;5077341;28;20046;-68
2022/04/08 08:15:15;;;;;;;2.10;1.27;;;;;;;-149.78;39.50;50178.09;5091275;28;20355;-67
2022/04/08 08:17:41;;;;;;;2.90;1.50;;;;;;;-149.78;40.03;50142.88;5085406;28;20044;-67
2022/04/08 08:20:08;;;;;;;2.47;1.58;;;;;;;-149.78;40.55;50170.25;5071211;28;20024;-69
2022/04/08 08:22:35;;;;;;;2.15;1.13;;;;;;;-149.78;39.78;50107.69;5091716;28;20426;-68
2022/04/08 08:25:03;;;;;;;1.88;1.10;;;;;;;-149.78;39.48;50158.53;5083381;28;20360;-67
2022/04/08 08:27:36;;;;;;;3.42;1.23;;;;;;;-149.78;39.19;50154.63;5086300;28;20024;-67
2022/04/08 08:30:03;;;;;;;2.50;1.15;;;;;;;-149.78;38.46;50138.97;5077415;28;20525;-67
2022/04/08 08:32:31;;;;;;;3.15;0.95;;;;;;;-149.78;39.04;50131.16;5075963;28;20020;-67
2022/04/08 08:34:58;;;;;;;2.13;1.10;;;;;;;-149.78;39.68;50140.94;5073211;28;20040;-67
2022/04/08 08:37:24;;;;;;;1.60;1.10;;;;;;;-149.78;39.29;50137.03;5074605;28;20376;-67
2022/04/08 08:39:49;;;;;;;1.38;1.00;;;;;;;-149.78;38.77;50166.34;5074553;28;20051;-67
2022/04/08 08:42:17;;;;;;;2.50;1.20;;;;;;;-149.78;39.62;50137.03;5077809;28;20042;-68
2022/04/08 08:44:42;;;;;;;4.05;1.80;;;;;;;-149.78;37.51;50113.56;5083744;28;20032;-68
2022/04/08 08:47:12;;;;;;;5.03;1.33;;;;;;;-149.78;37.15;50127.25;5078409;28;20042;-67
2022/04/08 08:49:38;;;;;;;2.15;0.98;;;;;;;-149.78;38.73;50115.50;5077129;28;20049;-67
2022/04/08 08:52:06;;;;;;;2.97;0.98;;;;;;;-149.78;38.34;50115.50;5079322;28;20077;-68
2022/04/08 08:54:33;;;;;;;3.53;1.25;;;;;;;-149.78;40.00;50154.63;5080954;28;20071;-68
2022/04/08 08:57:02;;;;;;;1.40;1.00;;;;;;;-149.78;39.08;50168.31;5080960;28;20074;-68
2022/04/08 08:59:29;;;;;;;2.38;1.42;;;;;;;-149.78;37.46;50117.47;5081245;28;20035;-67
2022/04/08 09:02:02;;;;;;;1.45;1.05;;;;;;;-149.78;38.14;50131.16;5083921;28;20039;-67
2022/04/08 09:04:28;;;;;;;8.02;1.40;;;;;;;-149.78;37.93;50111.59;5083845;28;20028;-67
2022/04/08 09:06:54;;;;;;;3.50;1.50;;;;;;;-149.78;38.49;50166.34;5082145;28;20107;-67
2022/04/08 09:09:31;;;;;;;4.82;1.42;;;;;;;-149.78;38.35;50144.84;5071408;28;20036;-67
2022/04/08 09:12:13;;;;;;;3.10;1.27;;;;;;;-149.78;39.24;50146.81;5079234;28;20032;-67
2022/04/08 09:14:43;;;;;;;2.20;1.05;;;;;;;-149.78;37.72;50150.72;5075257;28;20376;-67
2022/04/08 09:17:11;;;;;;;2.30;1.08;;;;;;;-149.78;37.94;50133.09;5081222;28;20119;-67
2022/04/08 09:19:37;;;;;;;1.92;1.00;;;;;;;-149.78;37.34;50135.06;5082947;28;20039;-69
2022/04/08 09:22:02;;;;;;;2.97;1.25;;;;;;;-149.78;36.53;50088.13;5082827;28;20036;-69
2022/04/08 09:24:28;;;;;;;3.75;1.35;;;;;;;-149.78;36.03;50111.59;5080079;28;20487;-69
2022/04/08 09:26:55;;;;;;;2.83;1.10;;;;;;;-149.78;36.34;50103.78;5085343;28;20032;-69
2022/04/08 09:29:22;;;;;;;3.13;1.13;;;;;;;-149.78;35.73;50094.00;5070100;28;20028;-69
2022/04/08 09:31:52;;;;;;;2.50;1.23;;;;;;;-149.78;36.05;50076.41;5083473;28;20051;-69
2022/04/08 09:34:20;;;;;;;2.15;1.20;;;;;;;-149.78;36.63;50088.13;5070575;28;20051;-69
2022/04/08 09:36:46;;;;;;;5.20;1.40;;;;;;;-149.78;36.31;50107.69;5071773;28;20024;-69
2022/04/08 09:39:13;;;;;;;6.38;1.23;;;;;;;-149.78;34.92;50103.78;5078240;28;20055;-70
2022/04/08 09:41:49;;;;;;;6.97;2.20;;;;;;;-149.78;35.92;50154.63;5076812;28;20036;-69
2022/04/08 09:44:25;;;;;;;6.85;1.67;;;;;;;-149.78;36.04;50107.69;5067788;28;20056;-69
2022/04/08 09:46:51;;;;;;;4.00;1.20;;;;;;;-149.78;36.08;50076.41;5079310;28;20028;-69
2022/04/08 09:49:16;;;;;;;2.35;1.23;;;;;;;-149.78;35.88;50115.50;5091954;28;20518;-70
2022/04/08 09:51:42;;;;;;;6.32;1.55;;;;;;;-149.78;36.37;50094.00;5089399;28;20028;-70
2022/04/08 09:54:15;;;;;;;3.63;1.70;;;;;;;-149.78;35.85;50115.50;5091544;28;20040;-71
2022/04/08 09:56:43;;;;;;;3.47;1.60;;;;;;;-149.78;36.15;50133.09;5087178;28;20028;-71
2022/04/08 09:59:14;;;;;;;3.67;1.95;;;;;;;-149.78;37.32;50115.50;5089518;28;20030;-72
2022/04/08 10:01:44;;;;;;;3.50;1.90;;;;;;;-149.78;36.90;50154.63;5088084;28;20036;-70
2022/04/08 10:04:11;;;;;;;2.20;1.30;;;;;;;-149.78;36.69;50160.50;5080583;28;20032;-70
2022/04/08 10:06:41;;;;;;;3.17;1.75;;;;;;;-149.78;36.61;50119.41;5084114;28;20032;-69
2022/04/08 10:09:12;;;;;;;4.15;1.60;;;;;;;-149.78;37.00;50111.59;5072764;28;20032;-70
2022/04/08 10:11:45;;;;;;;5.93;1.70;;;;;;;-149.78;37.23;50117.47;5081666;28;20468;-71
2022/04/08 10:14:35;;;;;;;2.97;1.70;;;;;;;-149.78;36.97;50092.03;5089566;28;20028;-70
2022/04/08 10:17:02;;;;;;;4.32;1.60;;;;;;;-149.78;35.98;50111.59;5088945;28;20032;-70
2022/04/08 10:19:29;;;;;;;2.15;1.30;;;;;;;-149.78;39.96;50197.66;5075348;28;20032;-69
2022/04/08 10:21:56;;;;;;;4.20;1.50;;;;;;;-149.78;39.93;50207.44;5079206;28;20376;-69
2022/04/08 10:24:29;;;;;;;3.80;1.70;;;;;;;-149.78;42.73;50228.94;5095449;28;20040;-69
2022/04/08 10:26:58;;;;;;;4.97;1.95;;;;;;;-149.78;43.96;50205.47;5095119;28;20032;-69
2022/04/08 10:29:24;;;;;;;4.32;1.70;;;;;;;-149.78;43.96;50228.94;5095469;28;20032;-69
2022/04/08 10:32:05;;;;;;;5.15;1.83;;;;;;;-149.78;45.38;50264.13;5095210;28;20036;-68
2022/04/08 10:34:32;;;;;;;4.13;1.42;;;;;;;-149.78;45.39;50252.41;5064315;28;20155;-68
2022/04/08 10:37:00;;;;;;;6.03;1.50;;;;;;;-149.78;45.75;50232.84;5076322;28;20112;-69
2022/04/08 10:39:26;;;;;;;4.18;1.42;;;;;;;-149.78;43.54;50199.59;5074688;28;20044;-69
2022/04/08 10:42:03;;;;;;;1.92;1.27;;;;;;;-149.78;40.62;50185.91;5082612;28;20492;-70
2022/04/08 10:44:39;;;;;;;3.97;1.48;;;;;;;-149.78;41.09;50174.19;5095041;28;20024;-70
2022/04/08 10:47:13;;;;;;;2.70;1.40;;;;;;;-149.78;40.16;50178.09;5095025;28;20388;-70
2022/04/08 10:49:54;;;;;;;9.95;1.30;;;;;;;-149.78;40.28;50168.31;5094458;28;20047;-69
2022/04/08 10:52:26;;;;;;;6.97;1.40;;;;;;;-149.78;40.46;50201.56;5093427;28;20085;-69
2022/04/08 10:55:03;;;;;;;4.97;1.43;;;;;;;-149.78;42.54;50221.13;5094732;28;20039;-69
2022/04/08 10:57:36;;;;;;;3.80;1.10;;;;;;;-149.78;42.49;50232.84;5094752;28;20298;-69
2022/04/08 11:00:10;;;;;;;3.28;1.67;;;;;;;-149.78;45.15;50291.50;5084865;28;20123;-69
2022/04/08 11:02:37;;;;;;;4.43;1.30;;;;;;;-149.78;46.63;50252.41;5078717;28;20052;-69
2022/04/08 11:05:07;;;;;;;3.78;1.77;;;;;;;-149.78;46.34;50279.78;5085691;28;20575;-69
2022/04/08 11:07:33;;;;;;;4.03;1.55;;;;;;;-149.78;45.15;50248.50;5077456;28;20032;-69
2022/04/08 11:09:59;;;;;;;1.90;1.30;;;;;;;-149.78;46.61;50256.31;5079643;28;20494;-69
2022/04/08 11:12:30;;;;;;;3.85;1.33;;;;;;;-149.78;47.68;50311.06;5091399;28;20036;-69